createdAt,value
2018-05-26T00:01:27.782Z,48.97
2018-05-26T00:04:00.381Z,49.00
2018-05-26T00:06:31.799Z,49.08
2018-05-26T00:09:03.317Z,49.08
2018-05-26T00:11:36.792Z,49.04
2018-05-26T00:14:08.386Z,49.22
2018-05-26T00:16:41.199Z,49.07
2018-05-26T00:19:13.773Z,48.93
2018-05-26T00:21:44.361Z,49.07
2018-05-26T00:24:17.667Z,49.08
2018-05-26T00:26:49.105Z,49.12
2018-05-26T00:29:20.467Z,49.38
2018-05-26T00:31:53.205Z,49.36
2018-05-26T00:34:23.696Z,49.44
2018-05-26T00:36:54.554Z,48.95
2018-05-26T00:39:25.596Z,48.81
2018-05-26T00:41:56.091Z,48.84
2018-05-26T00:44:28.768Z,49.20
2018-05-26T00:47:00.242Z,49.40
2018-05-26T00:49:32.162Z,49.32
2018-05-26T00:52:04.021Z,49.37
2018-05-26T00:54:37.046Z,49.58
2018-05-26T00:57:09.387Z,49.85
2018-05-26T00:59:41.089Z,49.94
2018-05-26T01:02:11.527Z,49.93
2018-05-26T01:04:42.108Z,49.91
2018-05-26T01:07:12.999Z,50.09
2018-05-26T01:09:44.419Z,49.95
2018-05-26T01:12:15.269Z,50.13
2018-05-26T01:14:47.584Z,50.25
2018-05-26T01:17:19.986Z,50.33
2018-05-26T01:19:54.743Z,50.18
2018-05-26T01:22:25.291Z,50.19
2018-05-26T01:24:57.692Z,50.18
2018-05-26T01:27:31.292Z,49.97
2018-05-26T01:30:03.697Z,50.03
2018-05-26T01:32:34.280Z,50.15
2018-05-26T01:35:04.819Z,50.14
2018-05-26T01:37:35.272Z,50.05
2018-05-26T01:40:06.533Z,49.93
2018-05-26T01:42:38.802Z,49.66
2018-05-26T01:45:13.268Z,49.30
2018-05-26T01:47:45.598Z,49.19
2018-05-26T01:50:16.050Z,49.11
2018-05-26T01:52:46.857Z,48.94
2018-05-26T01:55:19.167Z,48.84
2018-05-26T01:57:49.666Z,49.30
2018-05-26T02:00:20.187Z,49.47
2018-05-26T02:02:50.597Z,49.35
2018-05-26T02:05:21.380Z,49.36
2018-05-26T02:07:51.944Z,49.40
2018-05-26T02:10:22.393Z,49.21
2018-05-26T02:12:52.814Z,49.41
2018-05-26T02:15:23.225Z,49.34
2018-05-26T02:17:55.807Z,49.68
2018-05-26T02:20:27.269Z,49.64
2018-05-26T02:22:59.574Z,49.56
2018-05-26T02:25:30.361Z,49.59
2018-05-26T02:28:00.819Z,49.97
2018-05-26T02:30:31.290Z,49.84
2018-05-26T02:33:02.325Z,49.88
2018-05-26T02:35:32.786Z,50.03
2018-05-26T02:38:05.171Z,50.12
2018-05-26T02:40:35.634Z,50.24
2018-05-26T02:43:06.085Z,50.26
2018-05-26T02:45:37.600Z,50.18
2018-05-26T02:48:08.122Z,49.98
2018-05-26T02:50:38.547Z,50.06
2018-05-26T02:53:09.969Z,49.73
2018-05-26T02:55:40.450Z,49.61
2018-05-26T02:58:11.234Z,49.48
2018-05-26T03:00:42.466Z,49.37
2018-05-26T03:03:12.936Z,49.19
2018-05-26T03:05:49.626Z,49.45
2018-05-26T03:08:25.138Z,49.79
2018-05-26T03:11:01.001Z,49.91
2018-05-26T03:13:36.556Z,49.96
2018-05-26T03:16:07.390Z,50.09
2018-05-26T03:18:38.033Z,50.24
2018-05-26T03:21:08.494Z,50.44
2018-05-26T03:23:39.334Z,50.23
2018-05-26T03:26:09.810Z,50.20
2018-05-26T03:28:40.355Z,50.15
2018-05-26T03:31:10.849Z,50.23
2018-05-26T03:33:42.183Z,49.91
2018-05-26T03:36:12.685Z,49.92
2018-05-26T03:38:43.562Z,49.75
2018-05-26T03:41:14.330Z,49.67
2018-05-26T03:43:45.054Z,49.72
2018-05-26T03:46:15.773Z,49.63
2018-05-26T03:48:46.199Z,49.26
2018-05-26T03:51:16.645Z,49.10
2018-05-26T03:53:46.863Z,48.86
2018-05-26T03:56:27.858Z,48.51
2018-05-26T03:59:09.283Z,48.15
2018-05-26T04:01:40.207Z,48.04
2018-05-26T04:04:10.674Z,47.80
2018-05-26T04:06:42.348Z,47.50
2018-05-26T04:09:12.817Z,46.71
2018-05-26T04:11:43.367Z,46.14
2018-05-26T04:14:13.899Z,45.38
2018-05-26T04:16:44.286Z,44.58
2018-05-26T04:19:16.742Z,43.99
2018-05-26T04:21:47.488Z,43.37
2018-05-26T04:24:17.940Z,42.77
2018-05-26T04:26:48.424Z,42.28
2018-05-26T04:29:19.721Z,41.63
2018-05-26T04:31:53.326Z,41.45
2018-05-26T04:34:23.903Z,40.69
2018-05-26T04:36:54.478Z,40.20
2018-05-26T04:39:25.478Z,40.16
2018-05-26T04:41:56.006Z,39.97
2018-05-26T04:44:26.583Z,39.81
2018-05-26T04:46:57.054Z,39.72
2018-05-26T04:49:29.336Z,39.30
2018-05-26T04:52:00.072Z,39.24
2018-05-26T04:54:30.617Z,39.25
2018-05-26T04:57:01.703Z,38.84
2018-05-26T04:59:32.189Z,38.64
2018-05-26T05:02:02.626Z,38.85
2018-05-26T05:04:33.478Z,38.26
2018-05-26T05:07:03.913Z,38.13
2018-05-26T05:09:34.510Z,37.86
2018-05-26T05:12:05.257Z,37.55
2018-05-26T05:14:36.325Z,37.48
2018-05-26T05:17:06.827Z,37.87
2018-05-26T05:19:37.225Z,37.66
2018-05-26T05:22:07.634Z,37.92
2018-05-26T05:24:38.522Z,38.06
2018-05-26T05:27:09.005Z,37.27
2018-05-26T05:29:39.534Z,36.53
2018-05-26T05:32:10.310Z,36.24
2018-05-26T05:34:40.783Z,36.03
2018-05-26T05:37:11.289Z,35.99
2018-05-26T05:39:41.778Z,35.67
2018-05-26T05:42:12.302Z,35.25
2018-05-26T05:44:43.092Z,35.34
2018-05-26T05:47:13.642Z,35.31
2018-05-26T05:49:44.748Z,34.43
2018-05-26T05:52:15.238Z,34.26
2018-05-26T05:54:45.719Z,34.28
2018-05-26T05:57:16.642Z,34.33
2018-05-26T05:59:47.433Z,34.48
2018-05-26T06:02:17.875Z,34.68
2018-05-26T06:04:48.396Z,34.45
2018-05-26T06:07:18.848Z,34.25
2018-05-26T06:09:50.329Z,34.12
2018-05-26T06:12:20.807Z,33.92
2018-05-26T06:14:51.757Z,33.86
2018-05-26T06:17:22.865Z,33.40
2018-05-26T06:19:53.375Z,33.49
2018-05-26T06:22:23.799Z,33.33
2018-05-26T06:24:54.322Z,33.34
2018-05-26T06:27:32.014Z,33.02
2018-05-26T06:30:03.692Z,32.60
2018-05-26T06:32:34.164Z,32.50
2018-05-26T06:35:04.650Z,32.18
2018-05-26T06:37:35.248Z,32.21
2018-05-26T06:40:05.834Z,32.00
2018-05-26T06:42:36.705Z,32.02
2018-05-26T06:45:07.209Z,32.44
2018-05-26T06:47:37.722Z,32.41
2018-05-26T06:50:09.091Z,32.81
2018-05-26T06:52:41.545Z,32.93
2018-05-26T06:55:12.465Z,32.56
2018-05-26T06:57:42.988Z,32.88
2018-05-26T07:00:15.289Z,32.68
2018-05-26T07:02:45.918Z,32.91
2018-05-26T07:05:17.109Z,32.76
2018-05-26T07:07:48.574Z,32.75
2018-05-26T07:10:18.962Z,32.86
2018-05-26T07:12:50.009Z,32.76
2018-05-26T07:15:20.476Z,32.77
2018-05-26T07:17:51.044Z,32.51
2018-05-26T07:20:26.469Z,32.14
2018-05-26T07:22:57.262Z,32.01
2018-05-26T07:25:27.896Z,32.20
2018-05-26T07:27:58.934Z,31.56
2018-05-26T07:30:29.539Z,31.49
2018-05-26T07:33:04.597Z,31.97
2018-05-26T07:35:35.239Z,31.71
2018-05-26T07:38:05.667Z,31.59
2018-05-26T07:40:36.433Z,30.96
2018-05-26T07:43:06.957Z,29.89
2018-05-26T07:45:37.436Z,29.97
2018-05-26T07:48:08.236Z,30.24
2018-05-26T07:50:38.856Z,30.54
2018-05-26T07:53:09.628Z,30.75
2018-05-26T07:55:40.397Z,30.26
2018-05-26T07:58:10.881Z,30.63
2018-05-26T08:00:41.701Z,30.55
2018-05-26T08:03:12.186Z,30.21
2018-05-26T08:05:42.686Z,30.50
2018-05-26T08:08:13.421Z,30.18
2018-05-26T08:10:43.869Z,30.45
2018-05-26T08:13:14.509Z,30.55
2018-05-26T08:15:45.384Z,30.08
2018-05-26T08:18:15.931Z,29.64
2018-05-26T08:20:46.457Z,29.38
2018-05-26T08:23:16.961Z,29.09
2018-05-26T08:25:47.420Z,28.62
2018-05-26T08:28:18.248Z,28.32
2018-05-26T08:30:48.785Z,28.84
2018-05-26T08:33:20.116Z,28.70
2018-05-26T08:35:51.079Z,29.35
2018-05-26T08:38:21.544Z,29.23
2018-05-26T08:40:52.026Z,29.35
2018-05-26T08:43:23.181Z,29.73
2018-05-26T08:45:53.584Z,29.65
2018-05-26T08:48:24.318Z,29.92
2018-05-26T08:50:54.885Z,30.03
2018-05-26T08:53:25.355Z,29.36
2018-05-26T08:55:55.826Z,29.64
2018-05-26T08:58:26.364Z,29.97
2018-05-26T09:00:57.130Z,29.94
2018-05-26T09:03:27.659Z,29.98
2018-05-26T09:05:58.222Z,29.58
2018-05-26T09:08:28.694Z,29.78
2018-05-26T09:10:59.894Z,29.71
2018-05-26T09:13:30.978Z,29.27
2018-05-26T09:16:01.626Z,29.30
2018-05-26T09:18:32.242Z,29.22
2018-05-26T09:21:03.057Z,29.03
2018-05-26T09:23:33.610Z,29.30
2018-05-26T09:26:04.095Z,29.31
2018-05-26T09:28:34.621Z,28.59
2018-05-26T09:31:05.101Z,28.13
2018-05-26T09:33:35.940Z,28.28
2018-05-26T09:36:06.414Z,28.45
2018-05-26T09:38:36.971Z,26.42
2018-05-26T09:41:07.498Z,26.98
2018-05-26T09:43:38.000Z,26.86
2018-05-26T09:46:08.810Z,27.59
2018-05-26T09:48:39.315Z,27.66
2018-05-26T09:51:09.770Z,27.79
2018-05-26T09:53:40.290Z,27.98
2018-05-26T09:56:10.808Z,28.07
2018-05-26T09:58:41.587Z,26.51
2018-05-26T10:01:12.109Z,26.19
2018-05-26T10:03:44.891Z,27.25
2018-05-26T10:06:17.247Z,27.45
2018-05-26T10:08:47.707Z,27.83
2018-05-26T10:11:18.628Z,27.31
2018-05-26T10:13:49.083Z,26.67
2018-05-26T10:16:19.597Z,25.08
2018-05-26T10:18:51.554Z,24.92
2018-05-26T10:21:21.992Z,25.13
2018-05-26T10:23:52.431Z,25.34
2018-05-26T10:26:23.374Z,24.96
2018-05-26T10:28:53.993Z,25.21
2018-05-26T10:31:24.481Z,24.54
2018-05-26T10:33:55.552Z,23.92
2018-05-26T10:36:26.091Z,24.05
2018-05-26T10:38:56.913Z,24.14
2018-05-26T10:41:27.471Z,24.46
2018-05-26T10:43:58.025Z,24.71
2018-05-26T10:46:29.259Z,25.26
2018-05-26T10:48:59.550Z,25.38
2018-05-26T10:51:30.362Z,25.06
2018-05-26T10:54:00.665Z,24.60
2018-05-26T10:56:30.907Z,24.63
2018-05-26T10:59:01.347Z,24.03
2018-05-26T11:01:33.458Z,24.55
2018-05-26T11:04:03.683Z,24.66
2018-05-26T11:06:44.471Z,23.96
2018-05-26T11:09:14.750Z,24.45
2018-05-26T11:11:45.783Z,24.28
2018-05-26T11:14:17.901Z,24.25
2018-05-26T11:16:50.842Z,23.88
2018-05-26T11:19:22.927Z,23.52
2018-05-26T11:21:55.939Z,23.35
2018-05-26T11:24:27.730Z,23.43
2018-05-26T11:26:59.966Z,23.62
2018-05-26T11:29:32.034Z,24.03
2018-05-26T11:32:04.555Z,23.87
2018-05-26T11:34:35.699Z,23.18
2018-05-26T11:37:05.942Z,23.16
2018-05-26T11:39:38.190Z,23.05
2018-05-26T11:42:09.336Z,23.12
2018-05-26T11:44:41.556Z,23.18
2018-05-26T11:47:11.869Z,22.87
2018-05-26T11:49:43.934Z,22.72
2018-05-26T11:52:15.329Z,23.10
2018-05-26T11:54:47.472Z,22.85
2018-05-26T11:57:18.750Z,22.94
2018-05-26T11:59:49.955Z,22.47
2018-05-26T12:02:21.272Z,22.62
2018-05-26T12:04:52.701Z,21.81
2018-05-26T12:07:23.906Z,21.27
2018-05-26T12:09:55.983Z,21.50
2018-05-26T12:12:28.540Z,21.22
2018-05-26T12:15:04.643Z,21.08
2018-05-26T12:17:35.851Z,20.96
2018-05-26T12:20:06.951Z,21.01
2018-05-26T12:22:38.137Z,21.01
2018-05-26T12:25:09.732Z,20.53
2018-05-26T12:27:41.644Z,19.29
2018-05-26T12:30:14.439Z,19.53
2018-05-26T12:32:47.934Z,20.26
2018-05-26T12:35:19.074Z,19.92
2018-05-26T12:37:50.221Z,20.00
2018-05-26T12:40:21.382Z,19.98
2018-05-26T12:42:52.845Z,20.15
2018-05-26T12:45:24.881Z,20.17
2018-05-26T12:47:56.124Z,20.51
2018-05-26T12:50:27.577Z,20.41
2018-05-26T12:52:58.641Z,20.63
2018-05-26T12:55:29.746Z,20.85
2018-05-26T12:58:01.116Z,21.60
2018-05-26T13:00:32.176Z,21.64
2018-05-26T13:03:03.334Z,20.96
2018-05-26T13:05:35.337Z,21.07
2018-05-26T13:08:06.398Z,18.55
2018-05-26T13:10:37.694Z,18.69
2018-05-26T13:13:08.796Z,19.50
2018-05-26T13:15:39.863Z,19.37
2018-05-26T13:18:11.374Z,18.43
2018-05-26T13:20:42.488Z,18.44
2018-05-26T13:23:13.559Z,19.40
2018-05-26T13:25:44.971Z,19.03
2018-05-26T13:28:16.066Z,19.54
2018-05-26T13:30:47.268Z,19.64
2018-05-26T13:33:18.319Z,19.55
2018-05-26T13:35:50.267Z,18.68
2018-05-26T13:38:21.826Z,17.95
2018-05-26T13:40:52.955Z,17.68
2018-05-26T13:43:24.656Z,18.58
2018-05-26T13:45:56.001Z,19.43
2018-05-26T13:48:27.384Z,19.37
2018-05-26T13:50:59.300Z,19.52
2018-05-26T13:53:30.814Z,19.31
2018-05-26T13:56:02.826Z,18.90
2018-05-26T13:58:34.238Z,18.29
2018-05-26T14:01:06.517Z,18.88
2018-05-26T14:03:38.274Z,19.18
2018-05-26T14:06:09.610Z,18.72
2018-05-26T14:08:40.975Z,18.80
2018-05-26T14:11:12.823Z,19.50
2018-05-26T14:13:44.265Z,19.38
2018-05-26T14:16:15.684Z,19.67
2018-05-26T14:18:47.034Z,19.04
2018-05-26T14:21:18.445Z,18.94
2018-05-26T14:23:50.269Z,19.06
2018-05-26T14:26:21.622Z,19.37
2018-05-26T14:28:53.333Z,19.49
2018-05-26T14:31:24.730Z,19.45
2018-05-26T14:33:56.086Z,19.24
2018-05-26T14:36:28.602Z,19.40
2018-05-26T14:38:59.957Z,19.13
2018-05-26T14:41:31.426Z,19.11
2018-05-26T14:44:03.588Z,18.44
2018-05-26T14:46:35.915Z,18.75
2018-05-26T14:49:07.642Z,18.11
2018-05-26T14:51:39.046Z,17.91
2018-05-26T14:54:11.411Z,17.85
2018-05-26T14:56:43.963Z,18.05
2018-05-26T14:59:15.270Z,17.90
2018-05-26T15:01:46.635Z,18.16
2018-05-26T15:04:18.499Z,18.07
2018-05-26T15:06:50.006Z,18.02
2018-05-26T15:09:22.211Z,17.44
2018-05-26T15:11:53.875Z,16.97
2018-05-26T15:14:25.279Z,16.78
2018-05-26T15:16:57.017Z,16.90
2018-05-26T15:19:29.945Z,17.08
2018-05-26T15:22:02.572Z,16.97
2018-05-26T15:24:35.539Z,16.82
2018-05-26T15:27:08.544Z,17.02
2018-05-26T15:29:40.025Z,17.09
2018-05-26T15:32:11.657Z,17.15
2018-05-26T15:34:44.019Z,16.57
2018-05-26T15:37:15.720Z,16.68
2018-05-26T15:39:47.272Z,16.75
2018-05-26T15:42:18.694Z,17.18
2018-05-26T15:44:50.422Z,17.47
2018-05-26T15:47:21.746Z,17.50
2018-05-26T15:49:53.189Z,17.58
2018-05-26T15:52:24.619Z,17.83
2018-05-26T15:54:55.988Z,18.01
2018-05-26T15:57:28.608Z,18.06
2018-05-26T16:00:00.050Z,17.94
2018-05-26T16:02:33.131Z,18.16
2018-05-26T16:05:05.594Z,18.57
2018-05-26T16:07:36.932Z,18.61
2018-05-26T16:10:09.770Z,18.93
2018-05-26T16:12:41.480Z,19.09
2018-05-26T16:15:15.084Z,19.36
2018-05-26T16:17:46.873Z,18.73
2018-05-26T16:20:18.289Z,18.55
2018-05-26T16:22:49.735Z,18.72
2018-05-26T16:25:22.441Z,18.77
2018-05-26T16:27:54.013Z,18.54
2018-05-26T16:30:25.572Z,17.97
2018-05-26T16:32:57.042Z,18.09
2018-05-26T16:35:28.443Z,18.30
2018-05-26T16:38:01.412Z,18.32
2018-05-26T16:40:33.629Z,18.22
2018-05-26T16:43:05.181Z,18.46
2018-05-26T16:45:36.565Z,18.58
2018-05-26T16:48:08.803Z,18.65
2018-05-26T16:53:06.953Z,19.33
2018-05-26T16:55:39.237Z,19.35
2018-05-26T16:58:12.110Z,19.58
2018-05-26T17:00:43.898Z,19.66
2018-05-26T17:03:18.672Z,19.91
2018-05-26T17:05:50.382Z,19.91
2018-05-26T17:08:21.774Z,20.18
2018-05-26T17:10:55.188Z,20.24
2018-05-26T17:13:26.979Z,20.35
2018-05-26T17:15:58.409Z,20.61
2018-05-26T17:18:29.874Z,20.57
2018-05-26T17:21:01.515Z,20.52
2018-05-26T17:23:33.727Z,20.74
2018-05-26T17:26:05.094Z,21.01
2018-05-26T17:28:36.842Z,21.20
2018-05-26T17:31:08.245Z,21.35
2018-05-26T17:33:40.551Z,21.25
2018-05-26T17:36:12.831Z,21.32
2018-05-26T17:38:44.147Z,21.33
2018-05-26T17:41:16.442Z,21.40
2018-05-26T17:43:48.701Z,21.51
2018-05-26T17:46:20.241Z,21.48
2018-05-26T17:48:51.527Z,21.78
2018-05-26T17:51:23.746Z,21.92
2018-05-26T17:53:55.442Z,22.37
2018-05-26T17:56:27.140Z,22.36
2018-05-26T17:58:58.547Z,23.23
2018-05-26T18:01:31.102Z,23.85
2018-05-26T18:04:02.652Z,24.65
2018-05-26T18:06:40.366Z,25.10
2018-05-26T18:09:12.657Z,25.47
2018-05-26T18:11:44.436Z,25.98
2018-05-26T18:14:16.031Z,26.24
2018-05-26T18:16:47.462Z,26.60
2018-05-26T18:19:19.243Z,27.09
2018-05-26T18:21:51.634Z,27.44
2018-05-26T18:24:23.991Z,27.85
2018-05-26T18:26:55.671Z,28.11
2018-05-26T18:29:27.171Z,27.96
2018-05-26T18:31:58.724Z,28.20
2018-05-26T18:34:30.153Z,28.35
2018-05-26T18:37:01.731Z,28.66
2018-05-26T18:39:33.471Z,28.97
2018-05-26T18:42:04.884Z,29.13
2018-05-26T18:44:36.499Z,29.39
2018-05-26T18:47:07.946Z,29.73
2018-05-26T18:49:39.370Z,30.05
2018-05-26T18:52:10.663Z,30.29
2018-05-26T18:54:42.116Z,30.41
2018-05-26T18:57:13.506Z,30.45
2018-05-26T18:59:44.874Z,30.65
2018-05-26T19:02:16.283Z,30.86
2018-05-26T19:04:47.916Z,31.11
2018-05-26T19:07:19.507Z,31.19
2018-05-26T19:09:50.838Z,31.42
2018-05-26T19:12:22.206Z,31.62
2018-05-26T19:14:53.646Z,31.84
2018-05-26T19:17:26.287Z,32.03
2018-05-26T19:19:57.879Z,32.31
2018-05-26T19:22:30.186Z,32.46
2018-05-26T19:25:02.029Z,32.69
2018-05-26T19:27:32.490Z,33.00
2018-05-26T19:30:05.524Z,33.40
2018-05-26T19:32:36.458Z,33.65
2018-05-26T19:35:06.986Z,33.85
2018-05-26T19:37:37.517Z,33.99
2018-05-26T19:40:09.164Z,34.07
2018-05-26T19:42:40.617Z,34.34
2018-05-26T19:45:14.397Z,34.13
2018-05-26T19:47:45.860Z,34.21
2018-05-26T19:50:17.202Z,34.43
2018-05-26T19:52:49.029Z,34.56
2018-05-26T19:55:20.110Z,34.57
2018-05-26T19:57:50.542Z,34.68
2018-05-26T20:00:21.063Z,35.00
2018-05-26T20:02:51.590Z,34.90
2018-05-26T20:05:22.314Z,34.91
2018-05-26T20:07:52.926Z,35.17
2018-05-26T20:10:24.118Z,35.06
2018-05-26T20:12:55.072Z,35.24
2018-05-26T20:15:25.654Z,35.39
2018-05-26T20:17:58.367Z,35.63
2018-05-26T20:20:29.067Z,35.76
2018-05-26T20:22:59.583Z,36.02
2018-05-26T20:25:30.379Z,36.38
2018-05-26T20:28:02.666Z,36.39
2018-05-26T20:30:33.183Z,36.48
2018-05-26T20:33:04.017Z,36.30
2018-05-26T20:35:36.605Z,36.32
2018-05-26T20:38:09.150Z,36.50
2018-05-26T20:40:41.395Z,36.39
2018-05-26T20:43:11.995Z,36.23
2018-05-26T20:45:44.706Z,36.29
2018-05-26T20:48:16.670Z,36.34
2018-05-26T20:50:47.314Z,36.57
2018-05-26T20:53:20.660Z,36.59
2018-05-26T20:55:51.149Z,36.65
2018-05-26T20:58:23.524Z,36.69
2018-05-26T21:00:54.111Z,36.79
2018-05-26T21:03:24.591Z,37.22
2018-05-26T21:05:55.514Z,37.30
2018-05-26T21:08:26.002Z,37.21
2018-05-26T21:10:56.590Z,37.13
2018-05-26T21:13:27.354Z,37.20
2018-05-26T21:15:57.922Z,37.48
2018-05-26T21:18:28.506Z,37.45
2018-05-26T21:20:59.006Z,37.69
2018-05-26T21:23:29.561Z,38.01
2018-05-26T21:26:00.387Z,38.34
2018-05-26T21:28:30.849Z,38.39
2018-05-26T21:31:01.384Z,38.59
2018-05-26T21:33:33.630Z,38.74
2018-05-26T21:36:05.246Z,39.00
2018-05-26T21:38:38.826Z,39.32
2018-05-26T21:41:11.160Z,39.63
2018-05-26T21:43:41.632Z,39.76
2018-05-26T21:46:14.313Z,39.84
2018-05-26T21:48:44.787Z,40.20
2018-05-26T21:51:15.324Z,40.66
2018-05-26T21:53:47.758Z,40.58
2018-05-26T21:56:20.052Z,40.75
2018-05-26T21:58:50.833Z,40.73
2018-05-26T22:01:23.191Z,40.79
2018-05-26T22:03:54.649Z,40.94
2018-05-26T22:06:25.203Z,40.91
2018-05-26T22:08:57.530Z,41.01
2018-05-26T22:11:30.253Z,41.08
2018-05-26T22:14:00.737Z,41.17
2018-05-26T22:16:31.250Z,41.24
2018-05-26T22:19:02.061Z,41.20
2018-05-26T22:21:34.428Z,41.30
2018-05-26T22:24:05.914Z,41.35
2018-05-26T22:26:38.226Z,41.38
2018-05-26T22:29:08.646Z,41.56
2018-05-26T22:31:40.410Z,41.60
2018-05-26T22:34:10.855Z,41.75
2018-05-26T22:36:43.338Z,41.90
2018-05-26T22:39:13.634Z,42.04
2018-05-26T22:41:44.143Z,42.01
2018-05-26T22:44:15.877Z,41.90
2018-05-26T22:46:46.626Z,41.74
2018-05-26T22:49:17.121Z,41.90
2018-05-26T22:51:48.734Z,41.93
2018-05-26T22:54:19.290Z,42.05
2018-05-26T22:56:51.689Z,42.13
2018-05-26T22:59:22.131Z,42.26
2018-05-26T23:01:54.443Z,42.34
2018-05-26T23:04:25.411Z,42.31
2018-05-26T23:06:56.182Z,42.09
2018-05-26T23:09:28.904Z,42.12
2018-05-26T23:11:59.387Z,42.27
2018-05-26T23:14:31.796Z,42.56
2018-05-26T23:17:03.545Z,42.51
2018-05-26T23:19:34.072Z,42.53
2018-05-26T23:22:04.926Z,42.56
2018-05-26T23:24:36.496Z,42.42
2018-05-26T23:27:07.065Z,42.40
2018-05-26T23:29:37.827Z,42.54
2018-05-26T23:32:10.126Z,42.65
2018-05-26T23:34:40.711Z,42.77
2018-05-26T23:37:11.616Z,42.97
2018-05-26T23:39:42.185Z,43.21
2018-05-26T23:42:12.765Z,43.29
2018-05-26T23:44:43.641Z,43.61
2018-05-26T23:47:14.122Z,43.86
2018-05-26T23:49:44.630Z,43.93
2018-05-26T23:52:15.191Z,44.23
2018-05-26T23:54:47.582Z,44.10
2018-05-26T23:57:19.212Z,44.15
2018-05-26T23:59:49.770Z,44.39
